Impacts TAF Board
For situational awareness. Not to be used for flight planning purposes.
IDs:

KBTR - Baton Rouge/Ryan Fld, LA, US

Issued at 1132 UTC 16 Aug 2022
Updated at 1402 UTC 16 Aug 2022
Potential Impact None Slight Moderate High
Time<<17/03Z 17/04Z 17/05Z 17/06Z 17/07Z 17/08Z 17/09Z 17/10Z 17/11Z 17/12Z 17/13Z 17/14Z 17/15Z>>
Type PRVL PRVL PRVL PRVL PRVL PRVL PRVL PRVL PRVL
VIS >6 >6 >6 >6 >6 >6 >6 >6 >6
CIG -- -- -- -- -- -- -- -- --
Cover SCT SCT SCT SCT SCT SCT SCT SCT SCT
FltCat VFR VFR VFR VFR VFR VFR VFR VFR VFR
WX -- -- -- -- -- -- -- -- --
WDir VRB VRB VRB VRB VRB VRB VRB VRB VRB
WSpd 3 3 3 3 3 3 3 3 3
WGst -- -- -- -- -- -- -- -- --
WSHgt -- -- -- -- -- -- -- -- --
WSDir -- -- -- -- -- -- -- -- --
WSSpd -- -- -- -- -- -- -- -- --
Raw TAF
KBTR 161132Z 1612/1712 VRB03KT P6SM SCT250
  FM161700 28006KT P6SM FEW035
  FM170000 VRB03KT P6SM SCT025


METAR Board
Radar Display
Forecast Discussion
For situational awareness. Not to be used for flight planning purposes.